Berlin, South Africa
Current Conditions -  °F | °C
As of 2:00 PM on Tuesday 21 Oct 2014 (Local Time) from FAEL Reporting Station
Broken Clouds Broken Clouds  
Wind Chill: 70°   Ceiling: 1500
Heat Index: 70°   Visibility: 6mi
Dew Point: 63°   Wind: 22mph
Humidity: 78%   Direction: 90°E
Pressure: 30.18"   Gusts: NA
Location:  32.88°S, 27.58°E
Report Text: FAEL 211200Z 09019KT 9999 SCT010 BKN015 BKN048 21/17 Q1022
Loading
Personal Weather Stations






























Interactive Weather Map
Tropical Storm Tracking
New forecast layout! Learn more

10-Day Weather Forecast

Advertisements
Track Severe Weather on mobile